Time;durP1;ratioP1;P1;durP2;ratioP2;P2;SDS_P1;SDS_P2;PMS_P1;PMS_P2;Temp;Humidity;BMP_temperature;BMP_pressure;BME280_temperature;BME280_humidity;BME280_pressure;Samples;Min_cycle;Max_cycle;Signal;HPM_P1;HPM_P2
2022/02/01 00:01:44;;;;;;;11.02;4.35;;;-0.80;99.90;;;;;;5070530;28;20318;-76
2022/02/01 00:04:32;;;;;;;8.15;4.30;;;-0.90;99.90;;;;;;5070782;28;20257;-77
2022/02/01 00:07:10;;;;;;;5.05;3.83;;;-1.00;99.90;;;;;;5070493;28;20153;-75
2022/02/01 00:10:09;;;;;;;6.82;3.45;;;-0.90;99.90;;;;;;5070492;28;20176;-76
2022/02/01 00:36:59;;;;;;;7.43;3.17;;;-0.60;99.90;;;;;;5069833;28;20239;-75
2022/02/01 00:39:42;;;;;;;6.93;3.53;;;-0.60;99.90;;;;;;5079076;28;20210;-76
2022/02/01 00:42:09;;;;;;;6.57;3.72;;;-0.70;99.90;;;;;;5089626;28;20179;-75
2022/02/01 00:44:35;;;;;;;5.03;3.70;;;-0.70;99.90;;;;;;5069690;28;20193;-75
2022/02/01 00:47:01;;;;;;;7.63;3.78;;;-0.70;99.90;;;;;;5084900;28;20180;-74
2022/02/01 00:49:29;;;;;;;10.18;4.35;;;-0.70;99.90;;;;;;5077957;28;20180;-76
2022/02/01 00:51:57;;;;;;;8.13;4.22;;;-0.70;99.90;;;;;;5069764;28;20153;-75
2022/02/01 00:54:24;;;;;;;7.53;4.10;;;-0.70;99.90;;;;;;5069640;28;20176;-76
2022/02/01 00:56:50;;;;;;;9.60;3.75;;;-0.80;99.90;;;;;;5069627;28;20252;-75
2022/02/01 00:59:16;;;;;;;6.88;4.07;;;-0.90;99.90;;;;;;5088688;28;20202;-76
2022/02/01 01:01:42;;;;;;;6.05;3.40;;;-0.90;99.90;;;;;;5089238;28;20232;-75
2022/02/01 01:04:08;;;;;;;7.75;3.25;;;-1.00;99.90;;;;;;5089403;28;20211;-75
2022/02/01 01:06:35;;;;;;;7.55;3.58;;;-1.00;99.90;;;;;;5078750;28;20239;-75
2022/02/01 01:09:02;;;;;;;6.75;3.80;;;-1.00;99.90;;;;;;5069312;28;20156;-75
2022/02/01 01:11:28;;;;;;;9.70;4.50;;;-0.90;99.90;;;;;;5069376;28;20633;-75
2022/02/01 01:14:31;;;;;;;9.27;4.13;;;-1.00;99.90;;;;;;5069441;28;20157;-75
2022/02/01 01:44:24;;;;;;;4.97;3.10;;;-1.00;99.90;;;;;;5089124;28;20233;-75
2022/02/01 01:55:13;;;;;;;7.90;3.17;;;-1.20;99.90;;;;;;5089081;28;20207;-77
2022/02/01 01:57:40;;;;;;;5.07;3.00;;;-1.20;99.90;;;;;;5089029;28;20163;-76
2022/02/01 02:00:18;;;;;;;6.68;3.47;;;-1.20;99.90;;;;;;5088695;28;20214;-76
2022/02/01 02:02:43;;;;;;;5.78;2.55;;;-1.20;99.90;;;;;;5088924;28;20163;-74
2022/02/01 02:05:09;;;;;;;6.15;2.42;;;-1.20;99.90;;;;;;5088713;28;20188;-75
2022/02/01 02:07:35;;;;;;;2.28;1.95;;;-1.20;99.90;;;;;;5088846;28;20167;-75
2022/02/01 02:10:03;;;;;;;4.38;2.78;;;-1.20;99.90;;;;;;5088752;28;20157;-75
2022/02/01 02:15:44;;;;;;;5.68;3.20;;;-1.10;99.90;;;;;;5092384;28;20233;-75
2022/02/01 02:18:10;;;;;;;1.95;1.83;;;-0.90;99.90;;;;;;5088743;28;20231;-74
2022/02/01 02:20:40;;;;;;;5.35;2.75;;;-0.90;99.90;;;;;;5088766;28;20160;-75
2022/02/01 02:23:07;;;;;;;4.00;2.80;;;-0.80;99.90;;;;;;5088771;28;20522;-74
2022/02/01 02:25:37;;;;;;;7.53;2.60;;;-0.70;99.90;;;;;;5088804;28;20187;-75
2022/02/01 02:28:06;;;;;;;9.63;4.10;;;-0.70;99.90;;;;;;5088733;28;20187;-75
2022/02/01 02:30:33;;;;;;;5.50;2.95;;;-0.60;99.90;;;;;;5088696;28;20156;-76
2022/02/01 02:33:04;;;;;;;3.78;2.58;;;-0.70;99.90;;;;;;5088773;28;20152;-76
2022/02/01 02:35:34;;;;;;;4.95;2.75;;;-0.80;99.90;;;;;;5079145;28;20669;-76
2022/02/01 02:38:05;;;;;;;8.13;3.25;;;-0.60;99.90;;;;;;5067301;28;20161;-76
2022/02/01 02:40:56;;;;;;;4.55;2.10;;;-0.70;99.90;;;;;;5068830;28;20265;-76
2022/02/01 02:46:04;;;;;;;4.82;2.53;;;-0.60;99.90;;;;;;5068389;28;20260;-75
2022/02/01 02:48:30;;;;;;;4.88;2.65;;;-0.60;99.90;;;;;;5068545;28;20167;-75
2022/02/01 02:50:55;;;;;;;4.32;2.65;;;-0.60;99.90;;;;;;5070978;28;20164;-77
2022/02/01 02:53:21;;;;;;;4.30;2.38;;;-0.50;99.90;;;;;;5072147;28;20328;-77
2022/02/01 02:55:47;;;;;;;6.32;2.60;;;-0.60;99.90;;;;;;5071962;28;20197;-76
2022/02/01 02:58:13;;;;;;;7.65;2.65;;;-0.50;99.90;;;;;;5071926;28;20157;-75
2022/02/01 03:00:39;;;;;;;3.75;2.00;;;-0.40;99.90;;;;;;5081463;28;20274;-76
2022/02/01 03:03:05;;;;;;;7.30;2.42;;;-0.30;99.90;;;;;;5107053;28;20714;-75
2022/02/01 03:05:31;;;;;;;4.95;3.10;;;-0.30;99.90;;;;;;5093744;28;20191;-76
2022/02/01 03:07:57;;;;;;;4.30;2.55;;;-0.40;99.90;;;;;;5106031;28;20173;-76
2022/02/01 03:10:23;;;;;;;2.22;2.00;;;-0.40;99.90;;;;;;5098288;28;20159;-77
2022/02/01 03:20:43;;;;;;;5.18;2.60;;;-0.40;99.90;;;;;;5104186;28;20194;-77
2022/02/01 03:23:09;;;;;;;4.45;2.35;;;-0.40;99.90;;;;;;5095004;28;20188;-76
2022/02/01 03:25:35;;;;;;;5.35;2.63;;;-0.40;99.90;;;;;;5107835;28;20266;-76
2022/02/01 03:28:01;;;;;;;3.25;2.08;;;-0.20;99.90;;;;;;5098311;28;20193;-76
2022/02/01 03:30:27;;;;;;;6.18;3.53;;;-0.20;99.90;;;;;;5100775;28;20621;-76
2022/02/01 03:32:53;;;;;;;7.05;3.40;;;-0.20;99.90;;;;;;5105398;28;20179;-76
2022/02/01 03:35:19;;;;;;;10.27;2.92;;;-0.20;99.90;;;;;;5094414;28;20192;-76
2022/02/01 03:37:45;;;;;;;9.35;3.63;;;-0.30;99.90;;;;;;5106386;28;20237;-76
2022/02/01 03:40:16;;;;;;;8.30;3.80;;;-0.20;99.90;;;;;;5099266;28;20167;-75
2022/02/01 03:42:42;;;;;;;6.07;3.28;;;-0.20;99.90;;;;;;5096800;28;20629;-76
2022/02/01 03:45:09;;;;;;;6.00;3.97;;;-0.20;99.90;;;;;;5107032;28;20221;-76
2022/02/01 03:47:36;;;;;;;5.70;3.35;;;-0.20;99.90;;;;;;5094131;28;20161;-75
2022/02/01 03:50:06;;;;;;;5.28;3.33;;;-0.20;99.90;;;;;;5103963;28;20171;-75
2022/02/01 03:52:31;;;;;;;7.72;3.75;;;-0.10;99.90;;;;;;5101972;28;20624;-76
2022/02/01 03:54:57;;;;;;;5.75;3.78;;;0.00;99.90;;;;;;5095847;28;20200;-77
2022/02/01 03:57:23;;;;;;;5.70;3.80;;;0.00;99.90;;;;;;5107320;28;20167;-76
2022/02/01 03:59:49;;;;;;;8.20;3.95;;;-0.10;99.90;;;;;;5095589;28;20168;-75
2022/02/01 04:02:16;;;;;;;9.23;2.80;;;0.00;99.90;;;;;;5101040;28;20251;-77
2022/02/01 04:04:42;;;;;;;10.07;4.22;;;0.10;99.90;;;;;;5102860;28;20201;-77
2022/02/01 04:07:09;;;;;;;14.25;4.13;;;0.00;99.90;;;;;;5094098;28;20172;-77
2022/02/01 04:09:35;;;;;;;5.95;3.13;;;-0.10;99.90;;;;;;5106831;28;20164;-76
2022/02/01 04:12:06;;;;;;;4.20;3.50;;;0.00;99.90;;;;;;5097238;28;20167;-77
2022/02/01 04:14:34;;;;;;;6.13;3.60;;;-0.10;99.90;;;;;;5099223;28;20180;-77
2022/02/01 04:17:03;;;;;;;7.65;3.38;;;-0.10;99.90;;;;;;5105687;28;20198;-76
2022/02/01 04:19:32;;;;;;;4.55;3.22;;;-0.10;99.90;;;;;;5093549;28;20172;-76
2022/02/01 04:22:02;;;;;;;7.95;3.80;;;0.00;99.90;;;;;;5110506;28;20160;-76
2022/02/01 04:24:34;;;;;;;6.28;4.32;;;0.00;99.90;;;;;;5110663;28;20187;-75
2022/02/01 04:27:00;;;;;;;7.28;3.45;;;-0.10;99.90;;;;;;5110281;28;20209;-76
2022/02/01 04:29:26;;;;;;;9.80;3.38;;;-0.10;99.90;;;;;;5110226;28;20219;-75
2022/02/01 04:31:53;;;;;;;5.25;3.47;;;-0.10;99.90;;;;;;5110024;28;20180;-76
2022/02/01 04:34:19;;;;;;;10.07;3.15;;;-0.10;99.90;;;;;;5110393;28;20235;-76
2022/02/01 04:36:45;;;;;;;9.57;3.05;;;-0.10;99.90;;;;;;5110134;28;20195;-76
2022/02/01 04:39:11;;;;;;;5.95;2.42;;;-0.20;99.90;;;;;;5109894;28;20190;-76
2022/02/01 04:41:37;;;;;;;6.55;2.85;;;-0.20;99.90;;;;;;5109679;28;20160;-76
2022/02/01 04:44:04;;;;;;;7.03;3.80;;;-0.20;99.90;;;;;;5109628;28;20191;-76
2022/02/01 04:46:30;;;;;;;4.03;3.25;;;-0.20;99.90;;;;;;5109940;28;20192;-76
2022/02/01 04:49:05;;;;;;;4.95;2.78;;;-0.20;99.90;;;;;;5109960;28;20181;-78
2022/02/01 04:51:31;;;;;;;6.15;3.35;;;-0.20;99.90;;;;;;5109926;28;20677;-78
2022/02/01 04:53:57;;;;;;;7.47;4.47;;;-0.20;99.90;;;;;;5103180;28;20172;-77
2022/02/01 04:56:25;;;;;;;8.23;4.20;;;-0.10;99.90;;;;;;5089421;28;20257;-77
2022/02/01 04:58:51;;;;;;;5.75;3.85;;;-0.10;99.90;;;;;;5089552;28;20168;-76
2022/02/01 05:01:22;;;;;;;8.40;4.18;;;0.00;99.90;;;;;;5089230;28;20696;-77
2022/02/01 05:03:49;;;;;;;11.82;4.93;;;0.00;99.90;;;;;;5089156;28;20179;-76
2022/02/01 05:06:15;;;;;;;8.85;4.40;;;0.00;99.90;;;;;;5089294;28;20199;-77
2022/02/01 05:08:43;;;;;;;10.52;4.78;;;0.00;99.90;;;;;;5089167;28;20156;-76
2022/02/01 05:11:09;;;;;;;10.48;5.15;;;0.00;99.90;;;;;;5089031;28;20218;-76
2022/02/01 05:16:31;;;;;;;11.30;4.72;;;0.00;99.90;;;;;;5089312;28;20203;-75
2022/02/01 05:19:05;;;;;;;11.07;6.00;;;0.00;99.90;;;;;;5089347;28;20159;-75
2022/02/01 05:21:34;;;;;;;16.88;7.28;;;0.00;99.90;;;;;;5089387;28;20240;-76
2022/02/01 05:24:02;;;;;;;13.05;6.05;;;-0.10;99.90;;;;;;5089125;28;20190;-76
2022/02/01 05:26:30;;;;;;;11.00;5.85;;;-0.20;99.90;;;;;;5089134;28;20242;-76
2022/02/01 05:28:56;;;;;;;14.90;6.43;;;-0.30;99.90;;;;;;5089249;28;20171;-76
2022/02/01 05:31:23;;;;;;;17.67;7.55;;;-0.30;99.90;;;;;;5089106;28;20164;-76
2022/02/01 05:33:49;;;;;;;15.95;7.05;;;-0.40;99.90;;;;;;5089176;28;20156;-75
2022/02/01 05:36:15;;;;;;;13.50;5.80;;;-0.50;99.90;;;;;;5088858;28;20191;-75
2022/02/01 05:38:41;;;;;;;11.45;6.40;;;-0.40;99.90;;;;;;5088913;28;20171;-76
2022/02/01 05:41:10;;;;;;;8.50;5.80;;;-0.40;99.90;;;;;;5088926;28;20202;-75
2022/02/01 05:43:42;;;;;;;12.13;5.28;;;-0.40;99.90;;;;;;5088987;28;20187;-76
2022/02/01 05:46:08;;;;;;;8.93;5.25;;;-0.40;99.90;;;;;;5088660;28;20226;-76
2022/02/01 05:48:34;;;;;;;10.88;5.28;;;-0.40;99.90;;;;;;5088956;28;20145;-77
2022/02/01 05:51:00;;;;;;;12.18;6.40;;;-0.40;99.90;;;;;;5088936;28;20164;-76
2022/02/01 05:53:27;;;;;;;12.95;6.05;;;-0.40;99.90;;;;;;5088487;28;20163;-76
2022/02/01 05:55:53;;;;;;;16.95;7.40;;;-0.30;99.90;;;;;;5088924;28;20199;-77
2022/02/01 05:58:20;;;;;;;11.38;5.70;;;-0.30;99.90;;;;;;5088996;28;20306;-76
2022/02/01 06:00:48;;;;;;;17.70;7.28;;;-0.20;99.90;;;;;;5088425;28;20254;-77
2022/02/01 06:03:14;;;;;;;14.02;6.25;;;-0.20;99.90;;;;;;5088701;28;20194;-77
2022/02/01 06:05:41;;;;;;;11.63;5.78;;;-0.10;99.90;;;;;;5088621;28;20192;-77
2022/02/01 06:08:07;;;;;;;10.80;6.07;;;-0.10;99.90;;;;;;5087658;28;20157;-76
2022/02/01 06:10:33;;;;;;;15.70;6.88;;;-0.20;99.90;;;;;;5087109;28;20239;-76
2022/02/01 06:12:59;;;;;;;10.30;6.00;;;-0.10;99.90;;;;;;5087012;28;20183;-76
2022/02/01 06:15:29;;;;;;;11.57;5.50;;;-0.20;99.90;;;;;;5086648;28;20263;-76
2022/02/01 06:17:56;;;;;;;8.35;5.00;;;-0.20;99.90;;;;;;5071075;28;20271;-77
2022/02/01 06:20:22;;;;;;;14.77;6.50;;;-0.20;99.90;;;;;;5088275;28;20179;-77
2022/02/01 06:22:48;;;;;;;11.18;6.25;;;-0.20;99.90;;;;;;5088022;28;20169;-76
2022/02/01 06:25:14;;;;;;;12.70;5.95;;;-0.10;99.90;;;;;;5089598;28;20188;-78
2022/02/01 06:27:40;;;;;;;8.77;4.80;;;-0.10;99.90;;;;;;5092147;28;20633;-76
2022/02/01 06:30:09;;;;;;;14.15;5.88;;;-0.20;99.90;;;;;;5091832;28;20167;-78
2022/02/01 06:32:40;;;;;;;10.45;6.53;;;-0.20;99.90;;;;;;5091545;28;20247;-77
2022/02/01 06:35:07;;;;;;;9.68;5.53;;;-0.20;99.90;;;;;;5091763;28;20184;-78
2022/02/01 06:37:34;;;;;;;15.57;6.10;;;-0.20;99.90;;;;;;5091637;28;20174;-77
2022/02/01 06:40:01;;;;;;;13.20;6.15;;;-0.20;99.90;;;;;;5087348;28;20161;-77
2022/02/01 06:42:27;;;;;;;9.80;5.63;;;-0.10;99.90;;;;;;5091707;28;20238;-76
2022/02/01 06:44:53;;;;;;;13.38;6.03;;;-0.10;99.90;;;;;;5091695;28;20188;-77
2022/02/01 06:47:18;;;;;;;17.88;6.40;;;0.10;99.90;;;;;;5092046;28;20157;-78
2022/02/01 06:49:46;;;;;;;16.52;5.82;;;0.10;99.90;;;;;;5091746;28;20153;-77
2022/02/01 06:52:13;;;;;;;23.05;6.47;;;0.20;99.90;;;;;;5091596;28;20267;-77
2022/02/01 06:54:40;;;;;;;12.00;6.15;;;0.40;99.90;;;;;;5091390;28;20163;-76
2022/02/01 06:57:06;;;;;;;13.07;7.15;;;0.40;99.90;;;;;;5091532;28;20162;-77
2022/02/01 06:59:33;;;;;;;15.88;7.18;;;0.50;99.90;;;;;;5091392;28;20167;-77
2022/02/01 07:01:59;;;;;;;18.30;7.53;;;0.60;99.90;;;;;;5090874;28;20223;-76
2022/02/01 07:04:25;;;;;;;10.70;7.15;;;0.60;99.90;;;;;;5091487;28;20194;-76
2022/02/01 07:06:51;;;;;;;13.32;6.25;;;0.70;99.90;;;;;;5091641;28;20164;-76
2022/02/01 07:09:19;;;;;;;17.33;6.70;;;0.70;99.90;;;;;;5091327;28;20652;-76
2022/02/01 07:11:45;;;;;;;11.88;5.90;;;0.90;99.90;;;;;;5091341;28;20275;-76
2022/02/01 07:14:10;;;;;;;15.18;6.45;;;0.90;99.90;;;;;;5091632;28;20168;-76
2022/02/01 07:16:36;;;;;;;9.45;5.15;;;1.00;99.90;;;;;;5091410;28;20171;-76
2022/02/01 07:19:03;;;;;;;9.52;5.13;;;1.30;99.90;;;;;;5091318;28;20168;-75
2022/02/01 07:21:29;;;;;;;14.13;5.53;;;1.40;99.90;;;;;;5091429;28;20196;-76
2022/02/01 07:23:56;;;;;;;11.35;5.00;;;1.50;99.90;;;;;;5089909;28;20184;-76
2022/02/01 07:26:23;;;;;;;9.18;4.95;;;1.60;99.90;;;;;;5091466;28;20164;-75
2022/02/01 07:28:49;;;;;;;8.68;4.90;;;1.90;99.90;;;;;;5091361;28;20212;-75
2022/02/01 07:31:16;;;;;;;9.15;4.63;;;2.30;99.90;;;;;;5091212;28;20304;-75
2022/02/01 07:33:43;;;;;;;13.25;4.95;;;2.70;99.90;;;;;;5090811;28;20166;-75
2022/02/01 07:36:10;;;;;;;8.57;4.07;;;3.20;99.90;;;;;;5100899;28;20183;-75
2022/02/01 07:38:36;;;;;;;10.30;3.90;;;3.20;99.90;;;;;;5110992;28;20177;-75
2022/02/01 07:41:02;;;;;;;8.82;4.63;;;3.30;99.90;;;;;;5111023;28;20199;-75
2022/02/01 07:43:32;;;;;;;10.98;3.45;;;3.20;99.90;;;;;;5093858;28;20192;-75
2022/02/01 07:46:09;;;;;;;6.97;3.63;;;3.10;99.90;;;;;;5110121;28;20651;-75
2022/02/01 07:48:36;;;;;;;7.03;3.88;;;3.00;99.90;;;;;;5111248;28;20155;-75
2022/02/01 07:51:02;;;;;;;10.05;3.55;;;3.20;99.90;;;;;;5110765;28;20187;-76
2022/02/01 07:53:28;;;;;;;5.93;2.28;;;3.10;99.90;;;;;;5083289;28;20168;-76
2022/02/01 07:55:55;;;;;;;3.22;1.85;;;3.30;99.90;;;;;;5081791;28;20754;-76
2022/02/01 07:58:21;;;;;;;3.67;1.70;;;3.60;99.90;;;;;;5080521;28;20171;-76
2022/02/01 08:00:47;;;;;;;1.80;1.60;;;3.90;99.90;;;;;;5087463;28;20294;-77
2022/02/01 08:03:12;;;;;;;3.05;1.60;;;4.00;99.90;;;;;;5082595;28;20235;-77
2022/02/01 08:05:39;;;;;;;2.08;1.23;;;4.20;99.90;;;;;;5078438;28;20192;-77
2022/02/01 08:08:05;;;;;;;3.45;1.30;;;4.50;99.90;;;;;;5069149;28;20164;-77
2022/02/01 08:10:40;;;;;;;1.88;1.20;;;4.70;99.90;;;;;;5070225;28;20160;-77
2022/02/01 08:18:36;;;;;;;5.07;1.90;;;5.10;99.90;;;;;;5088669;28;20190;-78
2022/02/01 08:21:04;;;;;;;3.42;1.90;;;5.30;99.90;;;;;;5087235;28;20176;-77
2022/02/01 08:23:31;;;;;;;8.85;2.15;;;5.30;99.90;;;;;;5093467;28;20226;-76
2022/02/01 08:25:58;;;;;;;3.03;1.77;;;5.30;99.90;;;;;;5100063;28;20167;-76
2022/02/01 08:28:25;;;;;;;3.00;1.50;;;5.30;99.90;;;;;;5100868;28;20187;-77
2022/02/01 08:30:52;;;;;;;3.55;2.00;;;5.30;99.90;;;;;;5093694;28;20160;-77
2022/02/01 08:33:19;;;;;;;6.70;1.70;;;5.30;99.90;;;;;;5106576;28;20167;-79
2022/02/01 08:35:45;;;;;;;5.70;1.30;;;5.40;99.90;;;;;;5083915;28;20251;-78
2022/02/01 08:38:10;;;;;;;7.40;1.80;;;5.50;99.90;;;;;;5081573;28;20194;-77
2022/02/01 08:40:36;;;;;;;6.57;2.83;;;5.50;99.90;;;;;;5103952;28;20225;-76
2022/02/01 08:43:02;;;;;;;7.00;2.70;;;5.30;99.90;;;;;;5109429;28;20191;-77
2022/02/01 08:45:28;;;;;;;8.38;2.88;;;5.10;99.90;;;;;;5109985;28;20181;-77
2022/02/01 08:47:56;;;;;;;10.07;2.53;;;4.80;99.90;;;;;;5109482;28;20160;-76
2022/02/01 08:50:28;;;;;;;4.90;3.08;;;4.80;99.90;;;;;;5109788;28;20276;-77
2022/02/01 08:53:09;;;;;;;8.88;3.20;;;4.80;99.90;;;;;;5092290;28;20232;-76
2022/02/01 08:55:40;;;;;;;6.53;4.07;;;5.00;99.90;;;;;;5069511;28;20157;-76
2022/02/01 08:58:06;;;;;;;8.45;3.63;;;5.90;99.90;;;;;;5069301;28;20176;-77
2022/02/01 09:00:33;;;;;;;5.97;3.33;;;7.50;99.90;;;;;;5074943;28;20278;-77
2022/02/01 09:03:03;;;;;;;7.10;3.60;;;8.80;99.90;;;;;;5088350;28;20206;-77
2022/02/01 09:05:33;;;;;;;9.50;3.70;;;9.30;99.90;;;;;;5079595;28;20200;-78
2022/02/01 09:08:01;;;;;;;12.65;3.97;;;9.00;99.90;;;;;;5068066;28;20186;-76
2022/02/01 09:10:30;;;;;;;14.55;4.70;;;8.80;99.90;;;;;;5069535;28;20192;-76
2022/02/01 09:12:56;;;;;;;13.32;3.88;;;8.60;99.90;;;;;;5076260;28;20261;-76
2022/02/01 09:15:24;;;;;;;9.63;3.30;;;7.80;99.90;;;;;;5089454;28;20199;-76
2022/02/01 09:17:51;;;;;;;9.73;3.13;;;7.70;99.90;;;;;;5092874;28;20168;-74
2022/02/01 09:20:17;;;;;;;12.23;3.08;;;8.00;99.90;;;;;;5100291;28;20160;-74
2022/02/01 09:22:43;;;;;;;6.32;3.92;;;9.10;99.90;;;;;;5109313;28;20220;-75
2022/02/01 09:25:09;;;;;;;11.95;3.40;;;8.40;99.90;;;;;;5109399;28;20199;-77
2022/02/01 09:27:36;;;;;;;5.20;2.97;;;8.10;99.90;;;;;;5109489;28;20189;-76
2022/02/01 09:30:03;;;;;;;6.90;3.63;;;8.10;99.90;;;;;;5106938;28;20189;-76
2022/02/01 09:32:29;;;;;;;10.90;4.78;;;8.80;99.90;;;;;;5073873;28;20181;-77
2022/02/01 09:34:55;;;;;;;8.82;2.85;;;8.90;99.90;;;;;;5069128;28;20160;-75
2022/02/01 09:37:23;;;;;;;10.45;2.95;;;8.60;99.90;;;;;;5068874;28;20161;-75
2022/02/01 09:39:50;;;;;;;6.97;3.17;;;8.20;99.90;;;;;;5068896;28;20161;-76
2022/02/01 09:42:17;;;;;;;18.85;4.10;;;9.70;99.90;;;;;;5069056;28;20210;-76
2022/02/01 09:44:44;;;;;;;6.82;2.72;;;10.20;99.90;;;;;;5068916;28;20208;-76
2022/02/01 09:47:11;;;;;;;13.98;3.53;;;10.90;99.90;;;;;;5069062;28;20200;-76
2022/02/01 09:49:38;;;;;;;2.28;1.38;;;11.10;99.90;;;;;;5068906;28;20183;-78
2022/02/01 09:52:04;;;;;;;2.33;1.20;;;11.40;99.90;;;;;;5069001;28;20210;-78
2022/02/01 09:54:30;;;;;;;3.83;1.40;;;9.10;99.90;;;;;;5068627;28;20160;-80
2022/02/01 09:57:02;;;;;;;11.98;3.97;;;7.80;99.90;;;;;;5068844;28;20537;-76
2022/02/01 09:59:33;;;;;;;3.85;1.30;;;6.50;99.90;;;;;;5069319;28;20165;-74
2022/02/01 10:02:07;;;;;;;0.93;0.57;;;6.50;99.90;;;;;;5072893;28;20712;-76
2022/02/01 10:04:34;;;;;;;6.38;2.75;;;7.40;99.90;;;;;;5072907;28;20192;-78
2022/02/01 10:07:08;;;;;;;3.33;1.13;;;8.00;99.90;;;;;;5072830;28;20192;-78
2022/02/01 10:09:35;;;;;;;0.60;0.40;;;8.30;99.90;;;;;;5072606;28;20164;-76
2022/02/01 10:12:01;;;;;;;0.35;0.35;;;8.60;99.90;;;;;;5072534;28;20153;-76
2022/02/01 10:14:39;;;;;;;2.10;0.47;;;8.70;99.90;;;;;;5072542;28;20222;-76
2022/02/01 10:17:08;;;;;;;0.20;0.20;;;8.70;99.90;;;;;;5071282;28;20192;-78
2022/02/01 10:19:34;;;;;;;0.65;0.30;;;8.20;99.90;;;;;;5072792;28;20236;-77
2022/02/01 10:22:04;;;;;;;0.20;0.20;;;9.40;99.90;;;;;;5072480;28;20165;-77
2022/02/01 10:24:41;;;;;;;0.38;0.20;;;10.60;99.90;;;;;;5072316;28;20303;-76
2022/02/01 10:27:10;;;;;;;0.40;0.10;;;11.40;99.30;;;;;;5071454;28;20218;-77
2022/02/01 10:29:39;;;;;;;0.63;0.63;;;11.50;98.60;;;;;;5072253;28;20683;-76
2022/02/01 10:32:27;;;;;;;1.25;0.45;;;10.30;99.90;;;;;;5072281;28;20191;-77
2022/02/01 10:34:54;;;;;;;3.20;0.30;;;9.20;99.70;;;;;;5072584;28;20153;-76
2022/02/01 10:37:25;;;;;;;1.80;0.30;;;8.50;99.90;;;;;;5072321;28;20199;-78
2022/02/01 10:40:02;;;;;;;0.32;0.30;;;9.50;99.90;;;;;;5072575;28;20166;-77
2022/02/01 10:42:28;;;;;;;3.38;0.90;;;9.20;99.90;;;;;;5072013;28;20199;-76
2022/02/01 10:44:57;;;;;;;0.25;0.25;;;8.60;99.90;;;;;;5071965;28;20189;-76
2022/02/01 10:47:42;;;;;;;0.47;0.30;;;9.40;99.70;;;;;;5071983;28;20208;-78
2022/02/01 10:50:17;;;;;;;1.38;0.50;;;8.80;99.90;;;;;;5072075;28;20176;-76
2022/02/01 10:52:46;;;;;;;1.02;0.60;;;8.60;99.90;;;;;;5071962;28;20173;-78
2022/02/01 10:55:14;;;;;;;2.50;0.88;;;8.00;99.90;;;;;;5071885;28;20152;-76
2022/02/01 10:57:40;;;;;;;0.85;0.50;;;7.20;99.90;;;;;;5071959;28;20195;-76
2022/02/01 11:00:10;;;;;;;1.83;0.57;;;6.70;99.90;;;;;;5071913;28;20211;-77
2022/02/01 11:02:42;;;;;;;3.40;0.30;;;7.20;99.90;;;;;;5071784;28;20164;-76
2022/02/01 11:05:19;;;;;;;0.28;0.20;;;8.10;99.90;;;;;;5071796;28;20165;-78
2022/02/01 11:07:50;;;;;;;0.60;0.30;;;8.60;99.70;;;;;;5071973;28;20220;-76
2022/02/01 11:10:16;;;;;;;2.60;1.02;;;8.60;99.90;;;;;;5071707;28;20287;-76
2022/02/01 11:12:42;;;;;;;2.10;1.10;;;8.60;99.90;;;;;;5072021;28;20168;-77
2022/02/01 11:15:26;;;;;;;10.30;3.15;;;9.60;99.30;;;;;;5072095;28;20157;-76
2022/02/01 11:17:52;;;;;;;2.58;0.30;;;10.70;98.00;;;;;;5071804;28;20164;-77
2022/02/01 11:20:30;;;;;;;0.85;0.35;;;10.10;99.10;;;;;;5071522;28;20149;-75
2022/02/01 11:23:09;;;;;;;7.47;0.85;;;10.10;99.00;;;;;;5071778;28;20228;-78
2022/02/01 11:25:48;;;;;;;8.30;0.63;;;10.80;97.70;;;;;;5071506;28;20310;-78
2022/02/01 11:31:06;;;;;;;0.20;0.20;;;10.40;98.10;;;;;;5071464;28;20167;-75
2022/02/01 11:33:40;;;;;;;0.30;0.30;;;10.60;97.70;;;;;;5071654;28;20219;-75
2022/02/01 11:36:11;;;;;;;0.93;0.50;;;10.80;97.80;;;;;;5071569;28;20218;-77
2022/02/01 11:38:54;;;;;;;0.70;0.57;;;10.60;97.70;;;;;;5070911;28;20168;-76
2022/02/01 11:41:41;;;;;;;1.52;0.30;;;9.70;98.20;;;;;;5071228;28;20153;-78
2022/02/01 11:44:29;;;;;;;0.50;0.43;;;9.50;98.60;;;;;;5071100;28;20188;-77
2022/02/01 11:47:07;;;;;;;0.40;0.30;;;10.50;97.90;;;;;;5070986;28;20534;-75
2022/02/01 11:49:34;;;;;;;5.32;0.30;;;9.90;98.10;;;;;;5080114;28;20243;-76
2022/02/01 11:52:12;;;;;;;2.65;0.52;;;9.40;98.50;;;;;;5102907;28;20574;-75
2022/02/01 11:54:42;;;;;;;1.52;1.13;;;9.90;98.70;;;;;;5096591;28;20171;-76
2022/02/01 11:57:24;;;;;;;0.93;0.17;;;9.70;99.00;;;;;;5095191;28;20286;-76
2022/02/01 12:00:15;;;;;;;0.15;0.15;;;10.90;99.00;;;;;;5098357;28;20186;-75
2022/02/01 12:02:52;;;;;;;0.70;0.38;;;11.10;97.50;;;;;;5096454;28;20196;-76
2022/02/01 12:05:35;;;;;;;0.20;0.20;;;10.30;98.50;;;;;;5094905;28;20176;-75
2022/02/01 12:08:11;;;;;;;2.03;0.45;;;9.70;98.30;;;;;;5092652;28;20180;-78
2022/02/01 12:10:47;;;;;;;0.20;0.13;;;9.70;98.10;;;;;;5097251;28;20636;-76
2022/02/01 12:13:18;;;;;;;0.00;0.00;;;8.50;99.90;;;;;;5111434;28;20289;-76
2022/02/01 12:15:46;;;;;;;0.65;0.30;;;9.10;99.50;;;;;;5109240;28;20195;-76
2022/02/01 12:18:29;;;;;;;0.65;0.40;;;9.10;99.30;;;;;;5110627;28;20353;-77
2022/02/01 12:21:12;;;;;;;0.15;0.15;;;9.00;99.80;;;;;;5110530;28;20183;-77
2022/02/01 12:23:43;;;;;;;0.28;0.20;;;9.10;99.30;;;;;;5109778;28;20190;-76
2022/02/01 12:26:19;;;;;;;0.17;0.17;;;9.20;99.60;;;;;;5110242;28;20190;-76
2022/02/01 12:28:46;;;;;;;0.13;0.13;;;9.10;99.50;;;;;;5110476;28;20147;-76
2022/02/01 12:31:15;;;;;;;0.20;0.10;;;8.70;99.80;;;;;;5110437;28;20163;-76
2022/02/01 12:33:52;;;;;;;3.03;0.22;;;9.30;99.50;;;;;;5110100;28;20165;-76
2022/02/01 12:36:26;;;;;;;0.15;0.10;;;9.00;99.40;;;;;;5110193;28;20198;-77
2022/02/01 12:39:03;;;;;;;0.35;0.25;;;8.60;99.90;;;;;;5110418;28;20170;-76
2022/02/01 12:41:40;;;;;;;4.13;0.75;;;8.90;99.80;;;;;;5110151;28;20187;-77
2022/02/01 12:46:53;;;;;;;0.60;0.20;;;7.60;99.90;;;;;;5109938;28;20195;-75
2022/02/01 12:49:38;;;;;;;1.85;0.10;;;7.10;99.90;;;;;;5110183;28;20152;-75
2022/02/01 12:52:06;;;;;;;0.88;0.28;;;7.10;99.90;;;;;;5094900;28;20182;-73
2022/02/01 12:54:39;;;;;;;3.30;1.42;;;7.50;99.90;;;;;;5098189;28;20195;-73
2022/02/01 12:57:08;;;;;;;0.30;0.28;;;7.60;99.90;;;;;;5102435;28;20190;-72
2022/02/01 12:59:47;;;;;;;2.15;0.98;;;7.50;99.90;;;;;;5091520;28;20671;-75
2022/02/01 13:02:15;;;;;;;2.53;1.48;;;7.70;99.90;;;;;;5101066;28;20222;-74
2022/02/01 13:04:42;;;;;;;0.35;0.30;;;7.50;99.90;;;;;;5098682;28;20229;-75
2022/02/01 13:07:28;;;;;;;0.68;0.30;;;7.60;99.90;;;;;;5102580;28;20194;-76
2022/02/01 13:15:46;;;;;;;0.88;0.22;;;7.40;99.90;;;;;;5089889;28;20216;-76
2022/02/01 13:18:22;;;;;;;0.20;0.17;;;7.00;99.90;;;;;;5100084;28;20182;-75
2022/02/01 13:21:05;;;;;;;0.65;0.35;;;7.00;99.90;;;;;;5090376;28;20195;-79
2022/02/01 13:23:42;;;;;;;0.55;0.45;;;7.00;99.90;;;;;;5083682;28;20207;-78
2022/02/01 13:26:09;;;;;;;1.35;0.82;;;7.00;99.90;;;;;;5092254;28;20182;-76
2022/02/01 13:28:35;;;;;;;1.95;0.57;;;7.00;99.90;;;;;;5096678;28;20168;-77
2022/02/01 13:31:14;;;;;;;0.40;0.10;;;7.10;99.90;;;;;;5099420;28;20625;-76
2022/02/01 13:33:52;;;;;;;0.40;0.25;;;7.00;99.90;;;;;;5089296;28;20206;-78
2022/02/01 13:36:18;;;;;;;0.40;0.40;;;7.20;99.90;;;;;;5098431;28;20210;-79
2022/02/01 13:38:56;;;;;;;0.47;0.28;;;7.00;99.90;;;;;;5086534;28;20212;-77
2022/02/01 13:41:23;;;;;;;0.40;0.40;;;6.90;99.90;;;;;;5101914;28;20214;-77
2022/02/01 13:43:56;;;;;;;0.32;0.17;;;6.70;99.90;;;;;;5085769;28;20216;-78
2022/02/01 13:46:30;;;;;;;1.73;0.35;;;6.70;99.90;;;;;;5093999;28;20272;-74
2022/02/01 13:49:05;;;;;;;0.55;0.25;;;6.60;99.90;;;;;;5092251;28;20203;-76
2022/02/01 13:51:43;;;;;;;3.92;0.20;;;6.70;99.90;;;;;;5104082;28;20627;-75
2022/02/01 13:54:09;;;;;;;1.45;0.47;;;6.60;99.90;;;;;;5093163;28;20197;-75
2022/02/01 13:56:36;;;;;;;4.28;0.75;;;6.60;99.90;;;;;;5097025;28;20266;-75
2022/02/01 13:59:10;;;;;;;0.38;0.22;;;6.60;99.90;;;;;;5101066;28;20187;-75
2022/02/01 14:01:42;;;;;;;0.68;0.40;;;6.50;99.90;;;;;;5089390;28;20231;-75
2022/02/01 14:04:13;;;;;;;0.20;0.20;;;6.50;99.90;;;;;;5091480;28;20202;-75
2022/02/01 14:06:53;;;;;;;0.65;0.20;;;6.40;99.90;;;;;;5095694;28;20160;-75
2022/02/01 14:09:45;;;;;;;0.77;0.45;;;6.40;99.90;;;;;;5082095;28;20168;-75
2022/02/01 14:16:07;;;;;;;0.15;0.15;;;6.60;99.90;;;;;;5097465;28;20183;-75
2022/02/01 14:28:13;;;;;;;0.45;0.30;;;7.40;99.90;;;;;;5090219;28;20191;-73
2022/02/01 14:35:55;;;;;;;0.35;0.20;;;7.20;99.90;;;;;;5075850;28;20160;-73
2022/02/01 14:44:02;;;;;;;1.20;0.30;;;7.40;99.90;;;;;;5090088;28;20253;-74
2022/02/01 14:46:28;;;;;;;0.20;0.20;;;7.30;99.10;;;;;;5087078;28;20690;-75
2022/02/01 14:48:55;;;;;;;1.00;0.47;;;6.80;99.90;;;;;;5103751;28;20164;-74
2022/02/01 14:51:21;;;;;;;0.40;0.28;;;6.80;99.90;;;;;;5092805;28;20204;-75
2022/02/01 14:53:47;;;;;;;0.32;0.32;;;6.80;99.90;;;;;;5107549;28;20222;-76
2022/02/01 14:56:20;;;;;;;1.27;0.20;;;6.60;99.90;;;;;;5098114;28;20204;-75
2022/02/01 15:07:47;;;;;;;0.77;0.40;;;6.50;99.90;;;;;;5092863;28;20192;-75
2022/02/01 15:12:48;;;;;;;1.70;1.52;;;6.20;99.90;;;;;;5091547;28;20253;-74